createdAt,value
2019-01-22T00:00:33.912Z,-5.45
2019-01-22T00:03:00.997Z,-5.41
2019-01-22T00:05:28.112Z,-5.45
2019-01-22T00:07:55.417Z,-5.57
2019-01-22T00:10:22.683Z,-5.69
2019-01-22T00:12:49.993Z,-5.76
2019-01-22T00:15:17.167Z,-5.86
2019-01-22T00:17:44.434Z,-5.90
2019-01-22T00:20:12.117Z,-5.91
2019-01-22T00:22:39.247Z,-5.84
2019-01-22T00:25:07.368Z,-5.68
2019-01-22T00:27:34.574Z,-5.65
2019-01-22T00:30:01.818Z,-5.64
2019-01-22T00:32:31.491Z,-5.53
2019-01-22T00:34:58.657Z,-5.47
2019-01-22T00:37:25.905Z,-5.52
2019-01-22T00:39:53.121Z,-5.55
2019-01-22T00:42:20.323Z,-5.56
2019-01-22T00:44:47.623Z,-5.64
2019-01-22T00:47:15.103Z,-5.77
2019-01-22T00:49:42.292Z,-5.89
2019-01-22T00:52:09.503Z,-5.91
2019-01-22T00:54:36.700Z,-5.88
2019-01-22T00:57:03.899Z,-5.80
2019-01-22T00:59:31.109Z,-5.77
2019-01-22T01:01:58.273Z,-5.79
2019-01-22T01:04:25.352Z,-5.88
2019-01-22T01:06:52.553Z,-5.96
2019-01-22T01:09:19.700Z,-5.84
2019-01-22T01:11:46.901Z,-5.80
2019-01-22T01:14:14.146Z,-5.69
2019-01-22T01:16:41.334Z,-5.60
2019-01-22T01:19:08.804Z,-5.52
2019-01-22T01:21:36.006Z,-5.51
2019-01-22T01:24:03.287Z,-5.57
2019-01-22T01:26:30.490Z,-5.58
2019-01-22T01:28:57.988Z,-5.63
2019-01-22T01:31:25.181Z,-5.68
2019-01-22T01:33:52.394Z,-5.76
2019-01-22T01:36:19.587Z,-5.74
2019-01-22T01:38:46.789Z,-5.78
2019-01-22T01:41:14.033Z,-5.85
2019-01-22T01:43:41.590Z,-5.91
2019-01-22T01:46:08.690Z,-5.96
2019-01-22T01:48:35.863Z,-5.90
2019-01-22T01:51:02.965Z,-6.00
2019-01-22T01:53:30.172Z,-6.05
2019-01-22T01:55:57.361Z,-6.06
2019-01-22T01:58:24.597Z,-6.13
2019-01-22T02:00:51.773Z,-6.19
2019-01-22T02:03:19.206Z,-6.19
2019-01-22T02:05:46.325Z,-6.21
2019-01-22T02:08:13.823Z,-6.24
2019-01-22T02:10:40.984Z,-6.24
2019-01-22T02:13:13.865Z,-6.25
2019-01-22T02:15:55.805Z,-6.29
2019-01-22T02:18:59.119Z,-6.39
2019-01-22T02:22:03.964Z,-6.46
2019-01-22T02:24:57.458Z,-6.45
2019-01-22T02:27:54.143Z,-6.42
2019-01-22T02:30:46.304Z,-6.37
2019-01-22T02:33:45.127Z,-6.28
2019-01-22T02:36:41.743Z,-6.02
2019-01-22T02:39:44.673Z,-5.96
2019-01-22T02:42:57.471Z,-5.94
2019-01-22T02:45:47.059Z,-6.09
2019-01-22T02:48:20.602Z,-6.22
2019-01-22T02:51:25.488Z,-6.20
2019-01-22T02:54:20.766Z,-6.11
2019-01-22T02:57:29.969Z,-6.02
2019-01-22T03:00:38.866Z,-5.94
2019-01-22T03:03:49.334Z,-5.91
2019-01-22T03:07:19.503Z,-6.01
2019-01-22T03:09:56.440Z,-6.09
2019-01-22T03:13:16.177Z,-6.13
2019-01-22T03:16:14.698Z,-6.10
2019-01-22T03:19:03.892Z,-6.02
2019-01-22T03:22:18.811Z,-6.01
2019-01-22T03:25:34.161Z,-5.97
2019-01-22T03:28:26.950Z,-5.98
2019-01-22T03:31:32.877Z,-6.01
2019-01-22T03:34:26.819Z,-5.96
2019-01-22T03:37:31.891Z,-6.07
2019-01-22T03:40:27.865Z,-6.22
2019-01-22T03:43:27.529Z,-6.34
2019-01-22T03:46:35.826Z,-6.45
2019-01-22T03:49:25.520Z,-6.42
2019-01-22T03:52:13.018Z,-6.31
2019-01-22T03:55:34.218Z,-6.28
2019-01-22T03:58:07.606Z,-6.37
2019-01-22T04:00:53.574Z,-6.53
2019-01-22T04:03:20.736Z,-6.47
2019-01-22T04:05:50.439Z,-6.35
2019-01-22T04:08:17.654Z,-6.37
2019-01-22T04:10:57.084Z,-6.40
2019-01-22T04:13:24.398Z,-6.37
2019-01-22T04:15:51.632Z,-6.25
2019-01-22T04:18:18.816Z,-6.14
2019-01-22T04:20:47.550Z,-6.13
2019-01-22T04:23:36.072Z,-6.16
2019-01-22T04:26:40.659Z,-6.19
2019-01-22T04:29:22.213Z,-6.28
2019-01-22T04:32:04.499Z,-6.39
2019-01-22T04:35:07.139Z,-6.42
2019-01-22T04:38:23.160Z,-6.41
2019-01-22T04:41:39.748Z,-6.47
2019-01-22T04:44:30.808Z,-6.50
2019-01-22T04:47:42.586Z,-6.40
2019-01-22T04:50:32.745Z,-6.41
2019-01-22T04:53:16.965Z,-6.28
2019-01-22T04:56:24.783Z,-6.25
2019-01-22T04:59:25.086Z,-6.30
2019-01-22T05:02:43.505Z,-6.15
2019-01-22T05:05:33.673Z,-5.96
2019-01-22T05:08:38.061Z,-6.03
2019-01-22T05:11:24.546Z,-6.10
2019-01-22T05:14:45.674Z,-6.13
2019-01-22T05:18:06.236Z,-6.20
2019-01-22T05:20:49.353Z,-6.20
2019-01-22T05:23:54.014Z,-6.11
2019-01-22T05:27:00.198Z,-5.97
2019-01-22T05:29:39.895Z,-5.79
2019-01-22T05:32:32.895Z,-5.60
2019-01-22T05:35:42.192Z,-5.44
2019-01-22T05:38:42.860Z,-5.29
2019-01-22T05:41:45.711Z,-5.11
2019-01-22T05:44:41.197Z,-4.96
2019-01-22T05:47:36.034Z,-4.82
2019-01-22T05:50:39.164Z,-4.68
2019-01-22T05:53:30.451Z,-4.57
2019-01-22T05:56:06.013Z,-4.46
2019-01-22T05:59:16.342Z,-4.34
2019-01-22T06:02:02.337Z,-4.28
2019-01-22T06:05:20.224Z,-4.22
2019-01-22T06:08:13.844Z,-4.17
2019-01-22T06:11:20.338Z,-3.82
2019-01-22T06:14:25.738Z,-3.78
2019-01-22T06:17:32.851Z,-3.90
2019-01-22T06:20:37.703Z,-3.93
2019-01-22T06:23:45.566Z,-3.98
2019-01-22T06:26:40.670Z,-3.96
2019-01-22T06:29:49.434Z,-3.95
2019-01-22T06:33:01.588Z,-3.99
2019-01-22T06:35:57.772Z,-3.97
2019-01-22T06:39:04.910Z,-4.14
2019-01-22T06:42:32.381Z,-4.25
2019-01-22T06:45:47.407Z,-4.19
2019-01-22T06:48:57.852Z,-4.16
2019-01-22T06:51:44.880Z,-4.09
2019-01-22T06:55:00.095Z,-4.06
2019-01-22T06:58:10.376Z,-4.13
2019-01-22T07:01:08.750Z,-4.15
2019-01-22T07:03:47.343Z,-4.11
2019-01-22T07:06:56.439Z,-4.07
2019-01-22T07:10:00.318Z,-4.18
2019-01-22T07:12:54.483Z,-4.18
2019-01-22T07:16:01.425Z,-4.19
2019-01-22T07:18:40.721Z,-4.23
2019-01-22T07:22:03.644Z,-4.24
2019-01-22T07:25:11.857Z,-4.23
2019-01-22T07:28:14.215Z,-4.34
2019-01-22T07:30:59.300Z,-4.22
2019-01-22T07:33:52.080Z,-4.29
2019-01-22T07:37:00.442Z,-4.37
2019-01-22T07:39:59.588Z,-4.55
2019-01-22T07:42:44.973Z,-4.52
2019-01-22T07:45:42.510Z,-4.51
2019-01-22T07:48:14.385Z,-4.40
2019-01-22T07:51:20.474Z,-4.30
2019-01-22T07:54:28.513Z,-4.29
2019-01-22T07:57:55.808Z,-4.31
2019-01-22T08:00:50.809Z,-4.32
2019-01-22T08:04:17.056Z,-4.22
2019-01-22T08:07:02.202Z,-4.22
2019-01-22T08:10:22.284Z,-4.03
2019-01-22T08:13:39.176Z,-3.85
2019-01-22T08:16:57.059Z,-3.85
2019-01-22T08:19:59.465Z,-3.71
2019-01-22T08:23:13.320Z,-3.57
2019-01-22T08:26:04.387Z,-3.50
2019-01-22T08:28:58.656Z,-3.42
2019-01-22T08:32:18.167Z,-3.36
2019-01-22T08:35:27.825Z,-3.25
2019-01-22T08:38:16.129Z,-3.23
2019-01-22T08:41:32.765Z,-3.17
2019-01-22T08:44:30.819Z,-3.15
2019-01-22T08:47:30.462Z,-3.11
2019-01-22T08:50:33.213Z,-3.10
2019-01-22T08:53:53.901Z,-2.95
2019-01-22T08:57:00.265Z,-3.00
2019-01-22T08:59:51.956Z,-2.91
2019-01-22T09:02:54.004Z,-2.79
2019-01-22T09:06:11.525Z,-2.71
2019-01-22T09:08:57.254Z,-2.61
2019-01-22T09:12:12.075Z,-2.43
2019-01-22T09:15:05.473Z,-2.37
2019-01-22T09:18:10.871Z,-2.27
2019-01-22T09:21:25.373Z,-2.25
2019-01-22T09:24:10.668Z,-2.12
2019-01-22T09:27:14.501Z,-1.98
2019-01-22T09:30:12.366Z,-1.87
2019-01-22T09:33:23.555Z,-1.75
2019-01-22T09:36:34.139Z,-1.60
2019-01-22T09:39:01.351Z,-1.60
2019-01-22T09:41:29.255Z,-1.62
2019-01-22T09:43:56.533Z,-1.56
2019-01-22T09:46:23.743Z,-1.57
2019-01-22T09:48:51.314Z,-1.67
2019-01-22T09:51:18.546Z,-1.67
2019-01-22T09:53:45.739Z,-1.57
2019-01-22T09:56:12.890Z,-1.54
2019-01-22T09:58:40.113Z,-1.45
2019-01-22T10:01:07.351Z,-1.39
2019-01-22T10:03:34.554Z,-1.38
2019-01-22T10:06:01.824Z,-1.40
2019-01-22T10:08:29.092Z,-1.33
2019-01-22T10:10:56.504Z,-1.22
2019-01-22T10:13:23.751Z,-1.10
2019-01-22T10:15:51.127Z,-1.00
2019-01-22T10:18:18.322Z,-0.92
2019-01-22T10:20:45.427Z,-0.92
2019-01-22T10:23:14.057Z,-0.92
2019-01-22T10:25:41.558Z,-0.87
2019-01-22T10:28:08.782Z,-0.80
2019-01-22T10:30:35.932Z,-0.77
2019-01-22T10:33:03.041Z,-0.81
2019-01-22T10:35:30.237Z,-0.85
2019-01-22T10:37:57.362Z,-0.90
2019-01-22T10:40:24.656Z,-0.88
2019-01-22T10:42:51.923Z,-0.77
2019-01-22T10:45:19.540Z,-0.70
2019-01-22T10:47:46.646Z,-0.65
2019-01-22T10:50:15.400Z,-0.60
2019-01-22T10:52:42.580Z,-0.52
2019-01-22T10:55:11.109Z,-0.45
2019-01-22T10:57:38.400Z,-0.36
2019-01-22T11:00:09.459Z,-0.27
2019-01-22T11:02:36.684Z,-0.17
2019-01-22T11:05:07.083Z,-0.09
2019-01-22T11:07:34.501Z,-0.03
2019-01-22T11:10:01.797Z,0.10
2019-01-22T11:12:29.010Z,0.26
2019-01-22T11:14:56.142Z,0.41
2019-01-22T11:17:23.322Z,0.41
2019-01-22T11:19:50.419Z,0.38
2019-01-22T11:22:17.627Z,0.43
2019-01-22T11:24:44.934Z,0.52
2019-01-22T11:27:12.154Z,0.55
2019-01-22T11:29:39.393Z,0.63
2019-01-22T11:32:06.654Z,0.72
2019-01-22T11:34:33.879Z,0.80
2019-01-22T11:37:01.077Z,0.90
2019-01-22T11:39:28.254Z,0.97
2019-01-22T11:41:55.467Z,0.91
2019-01-22T11:44:22.705Z,0.75
2019-01-22T11:46:49.902Z,0.68
2019-01-22T11:49:23.202Z,0.65
2019-01-22T11:51:46.281Z,0.51
2019-01-22T11:54:13.503Z,0.53
2019-01-22T11:56:41.175Z,0.61
2019-01-22T11:59:08.357Z,0.68
2019-01-22T12:01:35.521Z,0.79
2019-01-22T12:04:02.955Z,0.90
2019-01-22T12:06:30.493Z,0.95
2019-01-22T12:08:57.686Z,1.05
2019-01-22T12:11:24.919Z,1.00
2019-01-22T12:13:54.085Z,0.91
2019-01-22T12:16:21.244Z,0.93
2019-01-22T12:18:48.547Z,1.06
2019-01-22T12:21:15.792Z,1.14
2019-01-22T12:23:50.071Z,1.13
2019-01-22T12:26:17.284Z,1.09
2019-01-22T12:28:44.514Z,1.04
2019-01-22T12:31:12.058Z,0.98
2019-01-22T12:33:39.558Z,1.01
2019-01-22T12:36:06.666Z,1.14
2019-01-22T12:38:33.919Z,1.31
2019-01-22T12:41:01.144Z,1.44
2019-01-22T12:43:28.247Z,1.44
2019-01-22T12:45:55.446Z,1.44
2019-01-22T12:48:22.534Z,1.48
2019-01-22T12:50:49.841Z,1.31
2019-01-22T12:53:17.093Z,1.26
2019-01-22T12:55:44.278Z,1.19
2019-01-22T12:58:11.490Z,1.15
2019-01-22T13:00:38.919Z,1.17
2019-01-22T13:03:06.635Z,1.12
2019-01-22T13:05:57.026Z,1.13
2019-01-22T13:08:24.227Z,1.13
2019-01-22T13:10:51.440Z,1.08
2019-01-22T13:13:18.690Z,0.97
2019-01-22T13:15:45.892Z,0.87
2019-01-22T13:18:12.975Z,0.84
2019-01-22T13:20:41.024Z,0.75
2019-01-22T13:23:08.499Z,0.76
2019-01-22T13:25:35.735Z,0.70
2019-01-22T13:28:02.988Z,0.64
2019-01-22T13:30:30.128Z,0.61
2019-01-22T13:32:57.479Z,0.61
2019-01-22T13:35:24.603Z,0.61
2019-01-22T13:37:51.807Z,0.57
2019-01-22T13:40:19.062Z,0.55
2019-01-22T13:42:46.363Z,0.58
2019-01-22T13:45:16.379Z,0.67
2019-01-22T13:47:43.496Z,0.62
2019-01-22T13:50:13.202Z,0.51
2019-01-22T13:52:40.708Z,0.50
2019-01-22T13:55:10.613Z,0.53
2019-01-22T13:57:37.821Z,0.41
2019-01-22T14:00:09.279Z,0.31
2019-01-22T14:02:36.541Z,0.31
2019-01-22T14:05:04.560Z,0.33
2019-01-22T14:07:31.768Z,0.34
2019-01-22T14:09:59.045Z,0.41
2019-01-22T14:12:26.187Z,0.39
2019-01-22T14:14:53.448Z,0.31
2019-01-22T14:17:20.594Z,0.24
2019-01-22T14:19:47.964Z,0.15
2019-01-22T14:22:15.096Z,0.08
2019-01-22T14:24:42.229Z,-0.05
2019-01-22T14:27:09.617Z,0.00
2019-01-22T14:29:38.078Z,0.06
2019-01-22T14:32:08.138Z,0.18
2019-01-22T14:34:35.308Z,0.10
2019-01-22T14:37:02.586Z,0.04
2019-01-22T14:39:29.790Z,0.07
2019-01-22T14:41:56.960Z,0.11
2019-01-22T14:44:24.179Z,0.00
2019-01-22T14:46:51.380Z,0.03
2019-01-22T14:49:18.710Z,-0.01
2019-01-22T14:51:46.560Z,-0.01
2019-01-22T14:54:13.773Z,-0.04
2019-01-22T14:56:41.480Z,0.16
2019-01-22T14:59:08.612Z,0.11
2019-01-22T15:01:35.780Z,0.10
2019-01-22T15:04:03.129Z,0.07
2019-01-22T15:06:30.337Z,0.10
2019-01-22T15:08:57.569Z,-0.03
2019-01-22T15:11:24.824Z,-0.02
2019-01-22T15:13:53.078Z,0.01
2019-01-22T15:16:21.285Z,-0.02
2019-01-22T15:18:48.779Z,-0.13
2019-01-22T15:21:16.276Z,-0.10
2019-01-22T15:23:44.571Z,-0.09
2019-01-22T15:26:11.950Z,-0.08
2019-01-22T15:28:39.976Z,-0.14
2019-01-22T15:31:07.352Z,-0.23
2019-01-22T15:33:37.578Z,-0.26
2019-01-22T15:36:06.835Z,-0.19
2019-01-22T15:38:34.068Z,-0.13
2019-01-22T15:41:01.281Z,-0.12
2019-01-22T15:43:30.654Z,-0.06
2019-01-22T15:45:59.929Z,-0.04
2019-01-22T15:48:27.136Z,-0.05
2019-01-22T15:50:56.725Z,0.12
2019-01-22T15:53:23.963Z,0.01
2019-01-22T15:55:51.295Z,-0.02
2019-01-22T15:58:19.575Z,0.04
2019-01-22T16:00:46.748Z,-0.01
2019-01-22T16:03:13.966Z,-0.02
2019-01-22T16:05:41.077Z,-0.05
2019-01-22T16:08:08.593Z,-0.07
2019-01-22T16:10:35.808Z,-0.02
2019-01-22T16:13:03.719Z,0.02
2019-01-22T16:15:30.889Z,0.12
2019-01-22T16:17:58.442Z,0.18
2019-01-22T16:20:26.662Z,0.06
2019-01-22T16:22:54.683Z,-0.01
2019-01-22T16:25:22.134Z,-0.02
2019-01-22T16:27:49.227Z,-0.01
2019-01-22T16:30:18.329Z,-0.02
2019-01-22T16:32:45.728Z,-0.01
2019-01-22T16:35:14.621Z,0.11
2019-01-22T16:37:41.833Z,0.15
2019-01-22T16:40:10.075Z,0.02
2019-01-22T16:42:37.236Z,-0.12
2019-01-22T16:45:06.303Z,-0.10
2019-01-22T16:47:33.520Z,-0.07
2019-01-22T16:50:01.022Z,-0.09
2019-01-22T16:52:28.243Z,-0.07
2019-01-22T16:54:55.751Z,-0.10
2019-01-22T16:57:22.931Z,-0.09
2019-01-22T16:59:50.123Z,0.01
2019-01-22T17:02:17.954Z,0.08
2019-01-22T17:04:45.127Z,0.09
2019-01-22T17:07:12.414Z,0.05
2019-01-22T17:09:39.881Z,0.00
2019-01-22T17:12:07.079Z,-0.03
2019-01-22T17:14:34.207Z,-0.01
2019-01-22T17:17:01.403Z,-0.10
2019-01-22T17:19:28.895Z,-0.08
2019-01-22T17:21:56.164Z,-0.10
2019-01-22T17:24:23.414Z,-0.08
2019-01-22T17:26:50.612Z,0.11
2019-01-22T17:29:17.828Z,0.07
2019-01-22T17:32:04.833Z,0.05
2019-01-22T17:34:41.076Z,0.03
2019-01-22T17:37:08.418Z,0.03
2019-01-22T17:39:35.594Z,0.03
2019-01-22T17:42:02.907Z,0.04
2019-01-22T17:44:30.252Z,-0.02
2019-01-22T17:46:57.474Z,-0.01
2019-01-22T17:49:24.643Z,0.13
2019-01-22T17:51:51.888Z,0.03
2019-01-22T17:54:19.091Z,0.09
2019-01-22T17:56:46.464Z,0.07
2019-01-22T17:59:13.782Z,0.06
2019-01-22T18:01:40.863Z,0.15
2019-01-22T18:04:08.076Z,0.11
2019-01-22T18:06:35.220Z,0.10
2019-01-22T18:09:05.355Z,0.11
2019-01-22T18:11:37.028Z,0.04
2019-01-22T18:14:04.334Z,-0.12
2019-01-22T18:16:31.624Z,-0.16
2019-01-22T18:19:03.957Z,-0.15
2019-01-22T18:21:33.117Z,-0.16
2019-01-22T18:24:00.633Z,-0.07
2019-01-22T18:26:27.856Z,-0.06
2019-01-22T18:28:55.094Z,-0.01
2019-01-22T18:31:22.315Z,-0.07
2019-01-22T18:33:49.571Z,-0.10
2019-01-22T18:36:16.828Z,-0.12
2019-01-22T18:38:44.070Z,0.03
2019-01-22T18:41:11.300Z,0.07
2019-01-22T18:43:38.435Z,0.02
2019-01-22T18:46:06.537Z,0.02
2019-01-22T18:48:33.716Z,0.09
2019-01-22T18:51:00.823Z,0.04
2019-01-22T18:53:28.047Z,0.06
2019-01-22T18:55:55.237Z,0.06
2019-01-22T18:58:22.896Z,0.02
2019-01-22T19:00:50.151Z,-0.03
2019-01-22T19:03:17.437Z,-0.03
2019-01-22T19:05:44.910Z,-0.05
2019-01-22T19:08:12.126Z,-0.05
2019-01-22T19:10:39.504Z,-0.05
2019-01-22T19:13:06.962Z,0.03
2019-01-22T19:15:34.175Z,-0.02
2019-01-22T19:18:01.718Z,-0.08
2019-01-22T19:20:29.540Z,-0.10
2019-01-22T19:22:57.036Z,-0.08
2019-01-22T19:25:25.717Z,0.04
2019-01-22T19:27:53.029Z,0.03
2019-01-22T19:30:22.094Z,0.02
2019-01-22T19:32:49.332Z,-0.06
2019-01-22T19:35:16.454Z,-0.13
2019-01-22T19:37:43.708Z,-0.14
2019-01-22T19:40:12.006Z,-0.06
2019-01-22T19:42:39.213Z,-0.02
2019-01-22T19:45:09.929Z,-0.07
2019-01-22T19:47:37.095Z,-0.07
2019-01-22T19:50:06.526Z,-0.01
2019-01-22T19:52:34.122Z,0.02
2019-01-22T19:55:01.235Z,-0.14
2019-01-22T19:57:28.546Z,-0.14
2019-01-22T19:59:56.015Z,-0.20
2019-01-22T20:02:23.243Z,-0.26
2019-01-22T20:04:50.453Z,-0.31
2019-01-22T20:07:17.677Z,-0.42
2019-01-22T20:09:44.879Z,-0.46
2019-01-22T20:12:12.418Z,-0.58
2019-01-22T20:14:39.572Z,-0.58
2019-01-22T20:17:06.761Z,-0.60
2019-01-22T20:19:33.920Z,-0.52
2019-01-22T20:22:01.143Z,-0.54
2019-01-22T20:24:28.361Z,-0.54
2019-01-22T20:26:55.465Z,-0.62
2019-01-22T20:29:22.721Z,-0.67
2019-01-22T20:31:49.893Z,-0.69
2019-01-22T20:34:17.306Z,-0.63
2019-01-22T20:36:44.556Z,-0.71
2019-01-22T20:39:12.033Z,-0.73
2019-01-22T20:41:39.269Z,-0.66
2019-01-22T20:44:06.462Z,-0.65
2019-01-22T20:46:33.668Z,-0.75
2019-01-22T20:49:00.895Z,-0.74
2019-01-22T20:51:28.170Z,-0.74
2019-01-22T20:53:55.324Z,-0.82
2019-01-22T20:56:22.672Z,-0.92
2019-01-22T20:58:49.808Z,-0.91
2019-01-22T21:01:17.016Z,-0.90
2019-01-22T21:03:44.220Z,-0.91
2019-01-22T21:06:11.689Z,-0.91
2019-01-22T21:08:38.894Z,-0.97
2019-01-22T21:11:07.247Z,-0.91
2019-01-22T21:13:34.422Z,-0.86
2019-01-22T21:16:01.787Z,-0.86
2019-01-22T21:18:29.689Z,-0.92
2019-01-22T21:20:56.801Z,-0.95
2019-01-22T21:23:25.138Z,-0.98
2019-01-22T21:25:52.389Z,-1.02
2019-01-22T21:28:20.043Z,-0.85
2019-01-22T21:30:49.835Z,-0.92
2019-01-22T21:33:17.106Z,-0.99
2019-01-22T21:35:44.346Z,-0.93
2019-01-22T21:38:11.569Z,-0.88
2019-01-22T21:40:38.669Z,-0.97
2019-01-22T21:43:06.297Z,-0.92
2019-01-22T21:45:33.615Z,-0.87
2019-01-22T21:48:00.717Z,-0.97
2019-01-22T21:50:28.012Z,-0.97
2019-01-22T21:52:57.080Z,-0.96
2019-01-22T21:55:24.605Z,-0.95
2019-01-22T21:57:51.887Z,-0.79
2019-01-22T22:00:20.711Z,-0.83
2019-01-22T22:02:48.099Z,-0.84
2019-01-22T22:05:16.781Z,-0.78
2019-01-22T22:07:44.026Z,-0.75
2019-01-22T22:10:13.748Z,-0.69
2019-01-22T22:12:41.120Z,-0.79
2019-01-22T22:15:09.404Z,-0.82
2019-01-22T22:17:36.494Z,-0.82
2019-01-22T22:20:05.440Z,-0.82
2019-01-22T22:22:33.228Z,-0.73
2019-01-22T22:25:00.438Z,-0.73
2019-01-22T22:27:27.517Z,-0.69
2019-01-22T22:29:54.787Z,-0.72
2019-01-22T22:32:22.074Z,-0.67
2019-01-22T22:34:49.269Z,-0.75
2019-01-22T22:37:16.713Z,-0.75
2019-01-22T22:39:43.910Z,-0.76
2019-01-22T22:42:11.149Z,-0.71
2019-01-22T22:44:38.326Z,-0.77
2019-01-22T22:47:05.794Z,-0.80
2019-01-22T22:49:33.269Z,-0.83
2019-01-22T22:52:00.501Z,-0.90
2019-01-22T22:54:27.668Z,-0.71
2019-01-22T22:56:55.139Z,-0.76
2019-01-22T22:59:22.573Z,-0.79
2019-01-22T23:01:49.790Z,-0.84
2019-01-22T23:04:17.965Z,-0.78
2019-01-22T23:06:45.237Z,-0.77
2019-01-22T23:09:12.301Z,-0.76
2019-01-22T23:11:39.621Z,-0.85
2019-01-22T23:14:06.845Z,-0.94
2019-01-22T23:16:34.083Z,-0.86
2019-01-22T23:19:01.259Z,-0.90
2019-01-22T23:21:28.549Z,-0.81
2019-01-22T23:23:55.975Z,-0.70
2019-01-22T23:26:23.245Z,-0.64
2019-01-22T23:28:50.456Z,-0.80
2019-01-22T23:31:17.640Z,-0.87
2019-01-22T23:33:44.847Z,-0.81
2019-01-22T23:36:12.184Z,-0.81
2019-01-22T23:38:39.713Z,-0.86
2019-01-22T23:41:07.058Z,-0.92
2019-01-22T23:43:34.286Z,-0.80
2019-01-22T23:46:01.358Z,-0.85
2019-01-22T23:48:28.833Z,-0.78
2019-01-22T23:50:55.934Z,-0.79
2019-01-22T23:53:23.148Z,-0.81
2019-01-22T23:55:50.492Z,-0.91
2019-01-22T23:58:17.729Z,-0.90
